createdAt,value
2022-08-12T00:04:09.604Z,5.32
2022-08-12T00:09:32.445Z,5.75
2022-08-12T00:14:54.288Z,6.80
2022-08-12T00:20:16.297Z,6.18
2022-08-12T00:26:00.477Z,4.65
2022-08-12T00:31:26.320Z,2.95
2022-08-12T00:36:59.536Z,5.15
2022-08-12T00:42:25.920Z,6.20
2022-08-12T00:47:49.244Z,4.43
2022-08-12T00:53:12.571Z,3.38
2022-08-12T00:58:34.637Z,4.95
2022-08-12T01:03:59.482Z,4.57
2022-08-12T01:09:22.688Z,7.50
2022-08-12T01:14:45.406Z,5.80
2022-08-12T01:20:09.687Z,7.57
2022-08-12T01:25:41.396Z,4.72
2022-08-12T01:31:19.677Z,5.40
2022-08-12T01:36:50.297Z,5.60
2022-08-12T01:42:18.067Z,3.95
2022-08-12T01:47:56.489Z,3.03
2022-08-12T01:53:23.718Z,6.05
2022-08-12T01:58:46.783Z,4.55
2022-08-12T02:04:14.583Z,3.78
2022-08-12T02:09:55.279Z,5.53
2022-08-12T02:15:56.858Z,3.60
2022-08-12T02:21:24.442Z,6.43
2022-08-12T02:26:50.641Z,5.22
2022-08-12T02:32:14.470Z,4.30
2022-08-12T02:37:42.363Z,5.13
2022-08-12T02:43:22.207Z,3.75
2022-08-12T02:48:50.608Z,5.18
2022-08-12T02:54:12.704Z,6.35
2022-08-12T02:59:35.049Z,5.15
2022-08-12T03:04:58.493Z,4.82
2022-08-12T03:10:37.326Z,3.13
2022-08-12T03:15:59.825Z,8.02
2022-08-12T03:21:56.495Z,7.38
2022-08-12T03:27:06.082Z,3.50
2022-08-12T03:32:35.839Z,5.07
2022-08-12T03:38:00.915Z,7.78
2022-08-12T03:43:28.842Z,4.45
2022-08-12T03:48:51.594Z,7.68
2022-08-12T03:54:13.466Z,6.43
2022-08-12T03:59:35.271Z,4.38
2022-08-12T04:04:57.623Z,3.55
2022-08-12T04:10:20.623Z,4.60
2022-08-12T04:15:44.753Z,4.28
2022-08-12T04:21:07.265Z,4.68
2022-08-12T04:26:29.527Z,5.47
2022-08-12T04:31:51.384Z,2.85
2022-08-12T04:37:13.361Z,5.53
2022-08-12T04:42:35.238Z,5.85
2022-08-12T04:47:57.189Z,5.80
2022-08-12T04:53:19.360Z,5.45
2022-08-12T04:58:41.707Z,5.05
2022-08-12T05:04:05.594Z,5.05
2022-08-12T05:09:27.450Z,6.53
2022-08-12T05:15:11.379Z,3.47
2022-08-12T05:20:42.115Z,4.53
2022-08-12T05:26:04.233Z,6.22
2022-08-12T05:31:47.310Z,9.65
2022-08-12T05:37:08.984Z,3.75
2022-08-12T05:42:34.391Z,5.70
2022-08-12T05:53:18.591Z,3.78
2022-08-12T05:58:40.393Z,5.82
2022-08-12T06:04:02.228Z,5.28
2022-08-12T06:09:24.129Z,3.45
2022-08-12T06:14:45.945Z,3.08
2022-08-12T06:20:27.170Z,3.47
2022-08-12T06:25:49.909Z,3.47
2022-08-12T06:31:25.728Z,2.10
2022-08-12T06:36:48.591Z,3.85
2022-08-12T06:42:31.873Z,5.13
2022-08-12T06:47:53.035Z,6.28
2022-08-12T06:53:14.852Z,4.35
2022-08-12T06:58:36.664Z,5.88
2022-08-12T07:04:14.242Z,3.20
2022-08-12T07:10:06.907Z,2.97
2022-08-12T07:15:24.968Z,2.33
2022-08-12T07:20:52.754Z,2.13
2022-08-12T07:26:15.094Z,1.90
2022-08-12T07:31:39.753Z,2.50
2022-08-12T07:37:01.598Z,3.40
2022-08-12T07:42:26.467Z,3.42
2022-08-12T07:47:49.037Z,4.80
2022-08-12T07:53:10.898Z,2.40
2022-08-12T07:58:33.378Z,3.90
2022-08-12T08:03:58.873Z,3.45
2022-08-12T08:09:23.325Z,2.55
2022-08-12T08:14:45.139Z,2.67
2022-08-12T08:20:09.096Z,4.70
2022-08-12T08:25:35.829Z,4.18
2022-08-12T08:30:59.369Z,4.32
2022-08-12T08:36:24.229Z,4.03
2022-08-12T08:42:15.404Z,3.78
2022-08-12T08:47:27.993Z,3.72
2022-08-12T08:52:49.871Z,6.18
2022-08-12T08:58:12.102Z,4.05
2022-08-12T09:05:07.391Z,4.35
2022-08-12T09:09:15.797Z,3.45
2022-08-12T09:14:37.648Z,3.10
2022-08-12T09:20:00.887Z,2.40
2022-08-12T09:32:04.270Z,3.17
2022-08-12T09:37:00.235Z,3.20
2022-08-12T09:42:38.983Z,3.35
2022-08-12T09:48:05.790Z,4.13
2022-08-12T09:53:36.599Z,4.22
2022-08-12T09:59:02.094Z,5.13
2022-08-12T10:04:24.773Z,3.67
2022-08-12T10:09:57.158Z,3.15
2022-08-12T10:16:01.764Z,5.93
2022-08-12T10:21:07.552Z,6.32
2022-08-12T10:26:37.278Z,4.47
2022-08-12T10:32:21.050Z,5.05
2022-08-12T10:38:34.770Z,6.78
2022-08-12T10:43:24.154Z,5.55
2022-08-12T10:48:47.179Z,5.72
2022-08-12T10:54:21.569Z,6.05
2022-08-12T11:00:34.662Z,6.18
2022-08-12T11:07:05.358Z,6.13
2022-08-12T11:11:16.686Z,3.70
2022-08-12T11:16:38.907Z,5.95
2022-08-12T11:22:01.267Z,4.05
2022-08-12T11:27:24.984Z,4.80
2022-08-12T11:32:51.399Z,4.75
2022-08-12T11:38:13.230Z,5.20
2022-08-12T11:43:50.558Z,5.78
2022-08-12T11:49:30.695Z,5.78
2022-08-12T11:54:54.328Z,5.53
2022-08-12T12:02:01.649Z,5.47
2022-08-12T12:06:00.603Z,4.82
2022-08-12T12:11:22.869Z,5.57
2022-08-12T12:16:50.185Z,7.45
2022-08-12T12:22:15.688Z,4.32
2022-08-12T12:28:04.408Z,5.30
2022-08-12T12:33:56.750Z,6.57
2022-08-12T12:39:09.722Z,4.75
2022-08-12T12:44:41.931Z,5.47
2022-08-12T12:50:12.685Z,5.35
2022-08-12T12:55:54.353Z,4.70
2022-08-12T13:01:26.591Z,4.43
2022-08-12T13:12:13.473Z,5.43
2022-08-12T13:18:00.750Z,7.45
2022-08-12T13:23:36.967Z,6.03
2022-08-12T13:28:59.439Z,6.70
2022-08-12T13:34:33.621Z,5.60
2022-08-12T13:39:56.907Z,7.68
2022-08-12T13:45:18.961Z,6.43
2022-08-12T13:50:41.803Z,6.05
2022-08-12T13:56:04.266Z,7.07
2022-08-12T14:01:26.099Z,8.65
2022-08-12T14:06:48.795Z,9.73
2022-08-12T14:12:16.222Z,11.25
2022-08-12T14:17:38.304Z,11.30
2022-08-12T14:23:00.164Z,7.75
2022-08-12T14:28:45.472Z,8.27
2022-08-12T14:34:19.726Z,8.50
2022-08-12T14:39:50.717Z,10.50
2022-08-12T14:45:12.708Z,8.80
2022-08-12T14:52:07.904Z,7.47
2022-08-12T15:02:00.288Z,6.43
2022-08-12T15:07:34.273Z,6.07
2022-08-12T15:13:04.576Z,5.30
2022-08-12T15:18:31.746Z,5.45
2022-08-12T15:23:55.635Z,7.78
2022-08-12T15:29:19.044Z,5.30
2022-08-12T15:34:41.978Z,6.75
2022-08-12T15:40:05.303Z,5.80
2022-08-12T15:45:32.086Z,7.05
2022-08-12T15:50:55.359Z,6.57
2022-08-12T15:56:17.203Z,8.85
2022-08-12T16:01:40.215Z,9.63
2022-08-12T16:07:09.039Z,7.30
2022-08-12T16:12:31.281Z,6.95
2022-08-12T16:18:19.875Z,11.27
2022-08-12T16:23:55.233Z,15.18
2022-08-12T16:29:17.618Z,10.55
2022-08-12T16:34:42.351Z,11.77
2022-08-12T16:40:18.674Z,12.25
2022-08-12T16:46:05.001Z,15.05
2022-08-12T16:51:29.063Z,13.57
2022-08-12T16:56:59.319Z,11.93
2022-08-12T17:02:31.447Z,11.73
2022-08-12T17:07:56.286Z,11.63
2022-08-12T17:13:20.023Z,10.82
2022-08-12T17:18:42.876Z,10.20
2022-08-12T17:24:08.100Z,10.45
2022-08-12T17:30:00.650Z,11.32
2022-08-12T17:35:16.184Z,10.88
2022-08-12T17:40:40.887Z,11.60
2022-08-12T17:46:03.335Z,11.90
2022-08-12T17:51:26.313Z,14.10
2022-08-12T17:56:54.620Z,13.70
2022-08-12T18:02:29.949Z,13.13
2022-08-12T18:07:53.364Z,14.43
2022-08-12T18:13:40.925Z,13.50
2022-08-12T18:18:59.528Z,14.05
2022-08-12T18:24:25.085Z,14.88
2022-08-12T18:29:51.917Z,12.48
2022-08-12T18:35:17.340Z,15.80
2022-08-12T18:40:46.554Z,13.40
2022-08-12T18:46:12.565Z,13.98
2022-08-12T18:51:45.923Z,15.07
2022-08-12T18:57:16.267Z,16.33
2022-08-12T19:02:40.601Z,16.88
2022-08-12T19:08:03.233Z,17.05
2022-08-12T19:13:25.314Z,13.98
2022-08-12T19:18:55.264Z,13.30
2022-08-12T19:24:17.160Z,14.55
2022-08-12T19:29:44.166Z,14.57
2022-08-12T19:36:08.120Z,12.15
2022-08-12T19:40:48.945Z,19.77
2022-08-12T19:46:11.083Z,11.07
2022-08-12T19:51:35.851Z,11.05
2022-08-12T19:56:58.153Z,13.98
2022-08-12T20:02:21.184Z,15.38
2022-08-12T20:07:58.958Z,14.48
2022-08-12T20:18:57.232Z,13.73
2022-08-12T20:24:20.025Z,16.23
2022-08-12T20:29:45.555Z,14.40
2022-08-12T20:35:10.245Z,13.75
2022-08-12T20:40:32.358Z,13.40
2022-08-12T20:45:57.538Z,22.05
2022-08-12T20:51:20.017Z,14.10
2022-08-12T20:56:41.934Z,29.35
2022-08-12T21:02:07.862Z,32.08
2022-08-12T21:07:34.174Z,40.63
2022-08-12T21:18:28.641Z,12.60
2022-08-12T21:23:52.298Z,12.70
2022-08-12T21:29:19.217Z,13.95
2022-08-12T21:34:41.068Z,48.47
2022-08-12T21:40:13.115Z,12.95
2022-08-12T21:45:47.525Z,17.02
2022-08-12T21:51:22.665Z,13.40
2022-08-12T21:56:45.562Z,15.27
2022-08-12T22:02:09.965Z,11.35
2022-08-12T22:07:46.105Z,8.38
2022-08-12T22:14:02.253Z,7.57
2022-08-12T22:18:56.659Z,10.95
2022-08-12T22:24:26.717Z,10.10
2022-08-12T22:29:53.139Z,10.60
2022-08-12T22:35:21.966Z,9.32
2022-08-12T22:40:47.657Z,10.02
2022-08-12T22:46:11.230Z,10.30
2022-08-12T22:51:59.891Z,9.63
2022-08-12T22:57:15.771Z,10.85
2022-08-12T23:02:38.053Z,9.25
2022-08-12T23:08:01.127Z,9.65
2022-08-12T23:13:23.035Z,12.45
2022-08-12T23:18:48.238Z,16.80
2022-08-12T23:24:11.220Z,10.40
2022-08-12T23:29:43.076Z,11.10
2022-08-12T23:35:07.028Z,9.85
2022-08-12T23:40:29.012Z,10.38
2022-08-12T23:46:00.965Z,7.88
2022-08-12T23:51:24.361Z,9.52
2022-08-12T23:56:46.519Z,8.23
